createdAt,value
2022-07-28T00:00:44.113Z,6.47
2022-07-28T00:03:10.841Z,6.93
2022-07-28T00:05:37.624Z,9.47
2022-07-28T00:08:05.479Z,7.93
2022-07-28T00:10:32.472Z,10.17
2022-07-28T00:13:00.077Z,13.40
2022-07-28T00:15:27.820Z,9.30
2022-07-28T00:17:54.527Z,15.97
2022-07-28T00:20:21.480Z,13.13
2022-07-28T00:22:48.263Z,11.23
2022-07-28T00:25:15.368Z,16.17
2022-07-28T00:27:42.121Z,10.33
2022-07-28T00:30:10.165Z,10.60
2022-07-28T00:32:37.797Z,11.07
2022-07-28T00:35:05.184Z,7.77
2022-07-28T00:37:35.098Z,10.00
2022-07-28T00:40:02.391Z,12.03
2022-07-28T00:42:29.066Z,8.57
2022-07-28T00:44:55.748Z,12.73
2022-07-28T00:47:22.521Z,9.40
2022-07-28T00:49:50.437Z,17.20
2022-07-28T00:52:18.410Z,9.13
2022-07-28T00:54:45.171Z,8.70
2022-07-28T00:57:11.933Z,7.53
2022-07-28T00:59:38.645Z,10.77
2022-07-28T01:02:05.462Z,8.57
2022-07-28T01:04:32.490Z,10.47
2022-07-28T01:07:17.304Z,8.80
2022-07-28T01:10:13.870Z,7.77
2022-07-28T01:12:51.147Z,11.00
2022-07-28T01:15:29.175Z,15.20
2022-07-28T01:18:20.400Z,9.43
2022-07-28T01:20:49.904Z,8.00
2022-07-28T01:23:31.451Z,9.83
2022-07-28T01:26:34.067Z,8.60
2022-07-28T01:29:22.643Z,8.80
2022-07-28T01:31:59.789Z,8.97
2022-07-28T01:35:11.702Z,10.67
2022-07-28T01:37:51.902Z,9.30
2022-07-28T01:40:22.701Z,8.33
2022-07-28T01:42:54.245Z,7.60
2022-07-28T01:45:21.809Z,9.17
2022-07-28T01:47:50.020Z,11.70
2022-07-28T01:50:21.324Z,10.73
2022-07-28T01:52:49.925Z,8.90
2022-07-28T01:55:20.439Z,9.03
2022-07-28T01:57:49.253Z,7.23
2022-07-28T02:00:17.835Z,9.60
2022-07-28T02:02:46.980Z,9.00
2022-07-28T02:05:17.123Z,9.50
2022-07-28T02:07:49.538Z,6.63
2022-07-28T02:10:18.510Z,9.77
2022-07-28T02:12:48.813Z,8.27
2022-07-28T02:15:16.131Z,8.03
2022-07-28T02:17:47.060Z,6.67
2022-07-28T02:20:16.444Z,9.03
2022-07-28T02:22:45.515Z,9.97
2022-07-28T02:25:19.775Z,13.53
2022-07-28T02:27:58.495Z,9.03
2022-07-28T02:30:37.290Z,12.23
2022-07-28T02:33:24.439Z,9.00
2022-07-28T02:36:14.225Z,8.37
2022-07-28T02:38:46.648Z,8.93
2022-07-28T02:41:25.760Z,9.33
2022-07-28T02:43:56.841Z,9.17
2022-07-28T02:46:29.340Z,11.47
2022-07-28T02:49:03.126Z,10.57
2022-07-28T02:51:31.884Z,10.50
2022-07-28T02:53:59.673Z,9.73
2022-07-28T02:56:27.297Z,9.33
2022-07-28T02:58:54.956Z,9.37
2022-07-28T03:01:23.650Z,9.70
2022-07-28T03:03:50.997Z,8.87
2022-07-28T03:06:28.415Z,8.67
2022-07-28T03:08:56.406Z,8.47
2022-07-28T03:11:23.141Z,8.23
2022-07-28T03:13:49.801Z,8.30
2022-07-28T03:16:16.544Z,9.10
2022-07-28T03:18:43.230Z,7.67
2022-07-28T03:21:09.865Z,7.83
2022-07-28T03:23:45.738Z,8.33
2022-07-28T03:26:37.304Z,8.73
2022-07-28T03:29:04.282Z,9.77
2022-07-28T03:31:33.841Z,9.07
2022-07-28T03:34:00.694Z,9.80
2022-07-28T03:36:35.826Z,10.00
2022-07-28T03:39:06.417Z,13.23
2022-07-28T03:41:34.481Z,10.60
2022-07-28T03:44:02.766Z,13.10
2022-07-28T03:46:29.732Z,9.20
2022-07-28T03:48:56.508Z,8.63
2022-07-28T03:51:25.595Z,9.77
2022-07-28T03:53:52.312Z,11.80
2022-07-28T03:56:19.538Z,18.50
2022-07-28T03:58:46.230Z,10.70
2022-07-28T04:01:13.012Z,10.33
2022-07-28T04:03:44.042Z,13.37
2022-07-28T04:06:15.633Z,9.03
2022-07-28T04:08:44.144Z,9.87
2022-07-28T04:11:10.831Z,8.73
2022-07-28T04:13:37.611Z,10.37
2022-07-28T04:16:05.892Z,11.43
2022-07-28T04:18:33.063Z,10.43
2022-07-28T04:21:00.725Z,11.33
2022-07-28T04:23:28.276Z,13.70
2022-07-28T04:25:55.439Z,12.97
2022-07-28T04:28:22.281Z,19.40
2022-07-28T04:30:48.935Z,13.70
2022-07-28T04:33:15.846Z,9.60
2022-07-28T04:35:42.534Z,11.20
2022-07-28T04:38:09.233Z,11.40
2022-07-28T04:40:35.927Z,11.17
2022-07-28T04:43:04.064Z,9.13
2022-07-28T04:45:30.987Z,10.07
2022-07-28T04:47:57.746Z,13.80
2022-07-28T04:50:24.617Z,11.70
2022-07-28T04:52:51.292Z,10.03
2022-07-28T04:55:18.282Z,9.73
2022-07-28T04:57:45.137Z,10.67
2022-07-28T05:00:13.868Z,10.67
2022-07-28T05:02:42.001Z,10.90
2022-07-28T05:05:09.978Z,14.23
2022-07-28T05:07:38.300Z,16.13
2022-07-28T05:10:06.742Z,9.23
2022-07-28T05:12:33.411Z,11.53
2022-07-28T05:15:00.275Z,10.87
2022-07-28T05:17:27.361Z,13.87
2022-07-28T05:19:54.198Z,13.70
2022-07-28T05:22:20.878Z,8.80
2022-07-28T05:24:47.618Z,9.33
2022-07-28T05:27:14.316Z,11.17
2022-07-28T05:29:47.723Z,10.63
2022-07-28T05:32:17.023Z,9.83
2022-07-28T05:34:44.614Z,10.83
2022-07-28T05:37:11.364Z,10.37
2022-07-28T05:39:38.063Z,13.20
2022-07-28T05:42:04.948Z,16.03
2022-07-28T05:44:37.250Z,11.07
2022-07-28T05:47:04.894Z,10.67
2022-07-28T05:49:31.631Z,10.67
2022-07-28T05:51:58.280Z,10.33
2022-07-28T05:54:25.356Z,10.07
2022-07-28T05:56:52.737Z,9.43
2022-07-28T05:59:19.699Z,11.33
2022-07-28T06:01:46.693Z,11.73
2022-07-28T06:04:29.418Z,8.73
2022-07-28T06:06:57.057Z,10.57
2022-07-28T06:09:23.783Z,10.10
2022-07-28T06:11:50.904Z,8.30
2022-07-28T06:14:18.748Z,11.97
2022-07-28T06:16:50.990Z,17.17
2022-07-28T06:19:18.673Z,11.23
2022-07-28T06:21:45.573Z,9.80
2022-07-28T06:24:12.601Z,12.20
2022-07-28T06:26:44.367Z,10.30
2022-07-28T06:29:12.524Z,10.90
2022-07-28T06:31:39.517Z,12.03
2022-07-28T06:34:06.621Z,9.27
2022-07-28T06:36:33.609Z,14.40
2022-07-28T06:39:00.287Z,12.10
2022-07-28T06:41:27.625Z,10.93
2022-07-28T06:43:54.327Z,13.70
2022-07-28T06:46:21.192Z,12.53
2022-07-28T06:48:47.933Z,9.80
2022-07-28T06:51:19.050Z,10.70
2022-07-28T06:53:48.426Z,14.20
2022-07-28T06:56:15.758Z,10.80
2022-07-28T06:58:47.066Z,11.00
2022-07-28T07:01:15.072Z,12.00
2022-07-28T07:03:43.048Z,11.50
2022-07-28T07:06:11.096Z,11.33
2022-07-28T07:08:38.528Z,12.50
2022-07-28T07:11:05.335Z,13.97
2022-07-28T07:13:33.234Z,14.20
2022-07-28T07:16:00.379Z,11.70
2022-07-28T07:18:27.281Z,13.60
2022-07-28T07:20:54.842Z,12.17
2022-07-28T07:23:21.605Z,13.17
2022-07-28T07:25:48.558Z,12.63
2022-07-28T07:28:15.227Z,14.53
2022-07-28T07:30:41.971Z,13.27
2022-07-28T07:33:10.749Z,13.40
2022-07-28T07:35:38.151Z,11.00
2022-07-28T07:38:05.040Z,10.00
2022-07-28T07:40:32.673Z,11.17
2022-07-28T07:42:59.339Z,10.13
2022-07-28T07:45:26.161Z,11.90
2022-07-28T07:47:53.181Z,14.47
2022-07-28T07:50:19.959Z,11.67
2022-07-28T07:52:46.648Z,10.50
2022-07-28T07:55:13.371Z,13.07
2022-07-28T07:57:40.574Z,11.93
2022-07-28T08:00:07.898Z,11.57
2022-07-28T08:02:54.630Z,12.63
2022-07-28T08:05:21.382Z,13.50
2022-07-28T08:08:02.290Z,11.53
2022-07-28T08:10:29.095Z,11.77
2022-07-28T08:12:55.760Z,11.27
2022-07-28T08:15:22.588Z,11.73
2022-07-28T08:17:49.236Z,10.57
2022-07-28T08:20:15.927Z,14.80
2022-07-28T08:22:54.910Z,13.70
2022-07-28T08:25:22.551Z,12.73
2022-07-28T08:27:50.363Z,14.63
2022-07-28T08:30:23.086Z,13.93
2022-07-28T08:32:56.355Z,15.80
2022-07-28T08:35:33.976Z,14.70
2022-07-28T08:38:02.788Z,11.80
2022-07-28T08:40:32.350Z,12.60
2022-07-28T08:43:06.569Z,13.90
2022-07-28T08:45:37.038Z,13.63
2022-07-28T08:48:09.488Z,12.87
2022-07-28T08:50:38.464Z,15.17
2022-07-28T08:53:06.907Z,19.83
2022-07-28T08:55:36.008Z,12.67
2022-07-28T08:58:04.298Z,12.70
2022-07-28T09:00:31.189Z,15.83
2022-07-28T09:03:00.214Z,12.47
2022-07-28T09:05:27.731Z,15.07
2022-07-28T09:07:55.670Z,13.87
2022-07-28T09:10:23.421Z,14.13
2022-07-28T09:12:50.758Z,13.83
2022-07-28T09:15:17.429Z,12.47
2022-07-28T09:17:44.178Z,17.00
2022-07-28T09:20:11.996Z,14.53
2022-07-28T09:23:41.680Z,12.27
2022-07-28T09:26:12.595Z,14.00
2022-07-28T09:28:59.052Z,14.27
2022-07-28T09:31:28.242Z,16.53
2022-07-28T09:33:56.067Z,18.93
2022-07-28T09:36:23.305Z,13.93
2022-07-28T09:38:50.180Z,25.47
2022-07-28T09:41:19.762Z,16.37
2022-07-28T09:43:48.789Z,16.50
2022-07-28T09:46:23.372Z,13.87
2022-07-28T09:48:50.559Z,14.13
2022-07-28T09:51:19.699Z,15.00
2022-07-28T09:53:46.473Z,18.33
2022-07-28T09:56:13.514Z,19.27
2022-07-28T09:58:41.612Z,16.50
2022-07-28T10:01:12.861Z,16.63
2022-07-28T10:03:41.732Z,18.03
2022-07-28T10:06:13.974Z,19.03
2022-07-28T10:08:45.678Z,35.80
2022-07-28T10:11:14.288Z,20.20
2022-07-28T10:14:04.595Z,18.40
2022-07-28T10:16:33.768Z,16.43
2022-07-28T10:19:04.084Z,17.83
2022-07-28T10:21:33.747Z,17.20
2022-07-28T10:24:05.138Z,19.40
2022-07-28T10:26:33.396Z,17.30
2022-07-28T10:29:04.905Z,17.83
2022-07-28T10:31:43.515Z,18.90
2022-07-28T10:34:17.602Z,19.63
2022-07-28T10:36:45.060Z,17.40
2022-07-28T10:39:20.081Z,18.23
2022-07-28T10:41:47.189Z,18.60
2022-07-28T10:44:14.746Z,23.80
2022-07-28T10:46:43.413Z,17.97
2022-07-28T10:49:11.608Z,15.33
2022-07-28T10:52:01.155Z,15.87
2022-07-28T10:54:36.499Z,18.33
2022-07-28T10:57:06.383Z,14.70
2022-07-28T10:59:55.824Z,16.17
2022-07-28T11:02:56.956Z,16.53
2022-07-28T11:05:31.394Z,17.50
2022-07-28T11:08:01.303Z,13.37
2022-07-28T11:10:29.880Z,20.60
2022-07-28T11:12:58.788Z,19.73
2022-07-28T11:15:35.772Z,15.60
2022-07-28T11:18:06.853Z,13.53
2022-07-28T11:20:50.974Z,15.03
2022-07-28T11:23:46.268Z,12.73
2022-07-28T11:26:22.547Z,13.07
2022-07-28T11:29:03.728Z,11.60
2022-07-28T11:31:48.152Z,12.77
2022-07-28T11:34:22.970Z,12.50
2022-07-28T11:36:59.005Z,12.53
2022-07-28T11:39:27.420Z,12.68
2022-07-28T11:41:54.329Z,10.43
2022-07-28T11:44:31.765Z,13.07
2022-07-28T11:47:22.677Z,15.90
2022-07-28T11:50:12.944Z,11.77
2022-07-28T11:52:51.947Z,8.93
2022-07-28T11:55:19.249Z,12.75
2022-07-28T11:57:52.025Z,9.60
2022-07-28T12:00:22.406Z,10.38
2022-07-28T12:02:50.953Z,13.55
2022-07-28T12:05:17.956Z,8.85
2022-07-28T12:07:55.592Z,9.02
2022-07-28T12:10:53.185Z,10.07
2022-07-28T12:13:25.751Z,8.90
2022-07-28T12:15:53.055Z,8.88
2022-07-28T12:18:19.763Z,8.70
2022-07-28T12:20:48.406Z,12.63
2022-07-28T12:23:15.475Z,12.05
2022-07-28T12:25:49.296Z,10.27
2022-07-28T12:28:22.689Z,11.80
2022-07-28T12:30:51.977Z,9.77
2022-07-28T12:33:29.166Z,10.57
2022-07-28T12:35:59.361Z,12.80
2022-07-28T12:38:28.782Z,12.18
2022-07-28T12:40:55.672Z,11.15
2022-07-28T12:43:30.453Z,13.32
2022-07-28T12:45:57.473Z,11.32
2022-07-28T12:48:24.238Z,12.68
2022-07-28T12:50:53.704Z,10.73
2022-07-28T12:53:22.851Z,12.80
2022-07-28T12:55:59.093Z,12.07
2022-07-28T12:58:27.599Z,9.23
2022-07-28T13:00:55.680Z,11.20
2022-07-28T13:03:27.955Z,15.52
2022-07-28T13:06:02.331Z,15.95
2022-07-28T13:08:37.861Z,11.55
2022-07-28T13:44:32.897Z,10.23
2022-07-28T13:47:00.789Z,10.20
2022-07-28T13:49:29.062Z,9.88
2022-07-28T13:51:55.918Z,10.02
2022-07-28T13:54:24.061Z,11.07
2022-07-28T13:56:50.759Z,10.63
2022-07-28T13:59:17.598Z,9.13
2022-07-28T14:01:44.491Z,11.38
2022-07-28T14:04:17.436Z,8.85
2022-07-28T14:06:45.458Z,10.57
2022-07-28T14:09:13.014Z,9.30
2022-07-28T14:11:49.908Z,9.70
2022-07-28T14:14:25.325Z,7.55
2022-07-28T14:16:54.324Z,10.25
2022-07-28T14:19:38.356Z,10.45
2022-07-28T14:22:12.879Z,8.43
2022-07-28T14:24:41.954Z,9.47
2022-07-28T14:27:08.610Z,10.27
2022-07-28T14:29:37.405Z,10.17
2022-07-28T14:32:04.322Z,10.55
2022-07-28T14:34:30.960Z,12.67
2022-07-28T14:36:57.669Z,13.73
2022-07-28T14:39:24.350Z,9.10
2022-07-28T14:41:51.047Z,15.13
2022-07-28T14:44:23.841Z,12.73
2022-07-28T14:46:51.570Z,12.83
2022-07-28T14:49:18.407Z,8.73
2022-07-28T14:51:45.119Z,15.40
2022-07-28T14:54:12.404Z,10.83
2022-07-28T14:56:39.273Z,8.97
2022-07-28T14:59:06.400Z,9.33
2022-07-28T15:01:36.475Z,8.20
2022-07-28T15:04:04.220Z,7.90
2022-07-28T15:06:31.144Z,9.40
2022-07-28T15:08:58.480Z,9.80
2022-07-28T15:11:25.729Z,8.70
2022-07-28T15:13:52.352Z,11.13
2022-07-28T15:16:19.155Z,7.27
2022-07-28T15:18:45.884Z,8.25
2022-07-28T15:21:16.658Z,7.33
2022-07-28T15:23:44.184Z,7.73
2022-07-28T15:26:11.659Z,7.87
2022-07-28T15:28:38.690Z,6.90
2022-07-28T15:31:08.515Z,7.00
2022-07-28T15:33:42.497Z,8.43
2022-07-28T15:36:14.718Z,8.63
2022-07-28T15:38:41.661Z,9.40
2022-07-28T15:41:14.930Z,6.93
2022-07-28T15:43:41.790Z,8.90
2022-07-28T15:46:11.753Z,9.70
2022-07-28T15:48:40.496Z,8.97
2022-07-28T15:51:08.213Z,10.07
2022-07-28T15:53:36.800Z,8.20
2022-07-28T15:56:04.669Z,9.20
2022-07-28T15:58:31.482Z,7.40
2022-07-28T16:01:01.007Z,8.40
2022-07-28T16:03:29.519Z,10.57
2022-07-28T16:05:56.661Z,9.97
2022-07-28T16:08:23.525Z,8.60
2022-07-28T16:10:52.618Z,8.43
2022-07-28T16:13:31.213Z,11.20
2022-07-28T16:16:12.932Z,12.93
2022-07-28T16:18:42.913Z,9.57
2022-07-28T16:21:11.030Z,8.53
2022-07-28T16:23:37.818Z,7.77
2022-07-28T16:26:07.911Z,10.20
2022-07-28T16:28:35.334Z,12.63
2022-07-28T16:31:02.135Z,11.73
2022-07-28T16:33:33.670Z,9.33
2022-07-28T16:36:01.381Z,15.33
2022-07-28T16:38:28.067Z,34.00
2022-07-28T16:40:54.718Z,22.93
2022-07-28T16:43:21.404Z,18.97
2022-07-28T16:45:48.133Z,11.97
2022-07-28T16:48:15.331Z,19.33
2022-07-28T16:50:45.858Z,13.60
2022-07-28T16:53:13.847Z,11.37
2022-07-28T16:55:42.325Z,18.87
2022-07-28T16:58:09.201Z,16.57
2022-07-28T17:00:36.104Z,26.03
2022-07-28T17:03:02.747Z,38.10
2022-07-28T17:05:29.420Z,32.40
2022-07-28T17:07:56.051Z,16.43
2022-07-28T17:10:27.248Z,11.83
2022-07-28T17:12:54.712Z,15.83
2022-07-28T17:15:22.584Z,12.07
2022-07-28T17:17:50.916Z,16.40
2022-07-28T17:20:17.697Z,13.27
2022-07-28T17:22:44.908Z,10.37
2022-07-28T17:25:35.578Z,9.67
2022-07-28T17:27:58.707Z,7.43
2022-07-28T17:30:26.104Z,10.27
2022-07-28T17:32:58.129Z,13.67
2022-07-28T17:35:34.111Z,9.47
2022-07-28T17:38:05.268Z,12.50
2022-07-28T17:40:31.939Z,8.73
2022-07-28T17:42:58.578Z,8.57
2022-07-28T17:45:25.373Z,9.30
2022-07-28T17:47:52.188Z,8.10
2022-07-28T17:50:18.978Z,8.70
2022-07-28T17:52:46.428Z,8.27
2022-07-28T17:55:35.688Z,9.77
2022-07-28T17:58:28.161Z,7.03
2022-07-28T18:01:10.946Z,7.83
2022-07-28T18:03:58.832Z,9.23
2022-07-28T18:06:35.728Z,10.43
2022-07-28T18:09:06.522Z,7.23
2022-07-28T18:11:36.909Z,8.87
2022-07-28T18:14:22.432Z,5.27
2022-07-28T18:16:49.094Z,3.83
2022-07-28T18:19:15.741Z,4.87
2022-07-28T18:21:43.696Z,4.23
2022-07-28T18:24:10.324Z,8.40
2022-07-28T18:26:36.921Z,7.13
2022-07-28T18:29:03.636Z,4.37
2022-07-28T18:31:30.510Z,3.20
2022-07-28T18:33:57.254Z,5.90
2022-07-28T18:36:23.946Z,5.57
2022-07-28T18:38:50.599Z,3.63
2022-07-28T18:41:17.393Z,6.10
2022-07-28T18:43:44.043Z,4.77
2022-07-28T18:46:10.796Z,4.93
2022-07-28T18:48:38.194Z,5.57
2022-07-28T18:51:04.962Z,8.50
2022-07-28T18:53:31.632Z,6.37
2022-07-28T18:55:58.340Z,5.90
2022-07-28T18:58:25.667Z,5.77
2022-07-28T19:00:52.512Z,5.53
2022-07-28T19:03:19.263Z,5.50
2022-07-28T19:05:46.517Z,3.50
2022-07-28T19:08:13.429Z,3.40
2022-07-28T19:10:40.274Z,3.70
2022-07-28T19:13:09.146Z,3.47
2022-07-28T19:15:40.741Z,2.60
2022-07-28T19:18:11.529Z,3.63
2022-07-28T19:20:44.246Z,5.17
2022-07-28T19:23:11.022Z,4.20
2022-07-28T19:25:39.346Z,5.47
2022-07-28T19:28:06.432Z,6.10
2022-07-28T19:30:33.614Z,10.77
2022-07-28T19:33:00.415Z,6.87
2022-07-28T19:35:27.257Z,8.47
2022-07-28T19:37:55.481Z,11.03
2022-07-28T19:40:22.369Z,6.13
2022-07-28T19:42:49.003Z,7.53
2022-07-28T19:45:16.907Z,9.60
2022-07-28T19:47:43.644Z,7.67
2022-07-28T19:50:10.388Z,6.80
2022-07-28T19:52:39.930Z,6.70
2022-07-28T19:55:07.965Z,6.43
2022-07-28T19:57:35.627Z,10.20
2022-07-28T20:00:02.422Z,7.47
2022-07-28T20:02:29.447Z,6.77
2022-07-28T20:04:56.205Z,7.40
2022-07-28T20:07:23.973Z,5.80
2022-07-28T20:09:50.797Z,7.30
2022-07-28T20:12:17.930Z,8.77
2022-07-28T20:14:44.674Z,11.73
2022-07-28T20:17:24.401Z,7.63
2022-07-28T20:19:58.031Z,9.80
2022-07-28T20:22:25.254Z,8.87
2022-07-28T20:24:52.146Z,8.47
2022-07-28T20:27:18.841Z,11.73
2022-07-28T20:29:46.014Z,9.60
2022-07-28T20:32:12.704Z,8.97
2022-07-28T20:34:39.833Z,9.10
2022-07-28T20:37:06.490Z,10.37
2022-07-28T20:39:53.151Z,7.87
2022-07-28T20:42:19.845Z,10.37
2022-07-28T20:44:48.917Z,6.70
2022-07-28T20:47:18.866Z,8.13
2022-07-28T20:49:45.531Z,7.53
2022-07-28T20:52:12.500Z,7.13
2022-07-28T20:54:39.359Z,7.63
2022-07-28T20:57:06.108Z,4.87
2022-07-28T20:59:32.928Z,6.37
2022-07-28T21:01:59.715Z,7.97
2022-07-28T21:04:26.639Z,6.77
2022-07-28T21:07:00.836Z,6.90
2022-07-28T21:09:29.151Z,5.27
2022-07-28T21:11:56.146Z,6.53
2022-07-28T21:14:22.813Z,9.67
2022-07-28T21:16:49.790Z,7.47
2022-07-28T21:19:16.636Z,4.97
2022-07-28T21:21:43.326Z,10.07
2022-07-28T21:24:10.019Z,4.90
2022-07-28T21:26:36.706Z,8.33
2022-07-28T21:29:12.800Z,9.50
2022-07-28T21:32:02.172Z,6.73
2022-07-28T21:34:31.040Z,8.80
2022-07-28T21:36:58.369Z,8.47
2022-07-28T21:39:25.574Z,5.43
2022-07-28T21:41:52.459Z,9.20
2022-07-28T21:44:19.311Z,7.67
2022-07-28T21:46:45.963Z,6.37
2022-07-28T21:49:12.936Z,8.93
2022-07-28T21:51:41.157Z,8.37
2022-07-28T21:54:11.155Z,8.13
2022-07-28T21:56:37.875Z,8.77
2022-07-28T21:59:04.725Z,6.43
2022-07-28T22:01:31.578Z,10.10
2022-07-28T22:03:58.393Z,10.37
2022-07-28T22:06:25.087Z,10.10
2022-07-28T22:08:54.063Z,4.70
2022-07-28T22:11:22.624Z,9.77
2022-07-28T22:13:49.741Z,7.83
2022-07-28T22:16:16.609Z,8.93
2022-07-28T22:18:43.342Z,6.77
2022-07-28T22:21:09.991Z,7.60
2022-07-28T22:23:36.642Z,5.30
2022-07-28T22:26:03.747Z,5.40
2022-07-28T22:28:30.834Z,12.20
2022-07-28T22:30:59.033Z,10.27
2022-07-28T22:33:39.098Z,8.47
2022-07-28T22:36:07.738Z,8.53
2022-07-28T22:38:34.556Z,7.17
2022-07-28T22:41:01.259Z,11.90
2022-07-28T22:43:28.016Z,6.73
2022-07-28T22:45:54.705Z,8.50
2022-07-28T22:48:21.412Z,7.47
2022-07-28T22:50:48.137Z,10.93
2022-07-28T22:53:14.898Z,7.40
2022-07-28T22:58:25.737Z,6.83
2022-07-28T23:00:52.580Z,8.33
2022-07-28T23:03:19.512Z,10.40
2022-07-28T23:05:46.503Z,8.30
2022-07-28T23:08:13.448Z,5.73
2022-07-28T23:10:40.271Z,10.43
2022-07-28T23:13:07.219Z,7.67
2022-07-28T23:15:40.195Z,9.87
2022-07-28T23:18:11.657Z,4.53
2022-07-28T23:20:39.578Z,11.30
2022-07-28T23:23:07.260Z,7.53
2022-07-28T23:25:37.080Z,8.43
2022-07-28T23:28:03.955Z,5.27
2022-07-28T23:30:30.750Z,7.73
2022-07-28T23:32:57.718Z,11.03
2022-07-28T23:35:24.686Z,5.30
2022-07-28T23:37:51.472Z,14.87
2022-07-28T23:40:18.237Z,5.90
2022-07-28T23:42:45.004Z,10.50
2022-07-28T23:45:11.943Z,6.03
2022-07-28T23:47:38.895Z,5.30
2022-07-28T23:50:06.375Z,7.27
2022-07-28T23:52:33.348Z,6.57
2022-07-28T23:55:00.148Z,6.97
2022-07-28T23:57:30.764Z,6.33
2022-07-28T23:59:59.319Z,5.27
